createdAt,value
2022-08-16T00:00:20.417Z,9.90
2022-08-16T00:02:51.957Z,9.80
2022-08-16T00:05:19.784Z,10.00
2022-08-16T00:07:47.400Z,10.00
2022-08-16T00:10:21.040Z,8.60
2022-08-16T00:12:49.006Z,8.60
2022-08-16T00:15:51.576Z,9.60
2022-08-16T00:18:19.075Z,7.80
2022-08-16T00:20:50.732Z,8.00
2022-08-16T00:23:19.833Z,10.00
2022-08-16T00:26:36.556Z,10.20
2022-08-16T00:28:47.397Z,9.70
2022-08-16T00:31:14.389Z,9.20
2022-08-16T00:33:41.645Z,9.20
2022-08-16T00:36:17.089Z,9.30
2022-08-16T00:38:43.757Z,9.10
2022-08-16T00:41:11.444Z,9.50
2022-08-16T00:43:42.399Z,8.90
2022-08-16T00:46:33.759Z,10.20
2022-08-16T00:49:17.594Z,9.80
2022-08-16T00:51:53.624Z,8.90
2022-08-16T00:54:26.263Z,9.50
2022-08-16T00:56:59.772Z,8.60
2022-08-16T00:59:32.890Z,8.50
2022-08-16T01:02:30.112Z,8.40
2022-08-16T01:05:09.366Z,8.50
2022-08-16T01:07:51.179Z,8.60
2022-08-16T01:10:32.226Z,8.50
2022-08-16T01:13:05.505Z,7.90
2022-08-16T01:15:36.101Z,9.60
2022-08-16T01:18:06.494Z,7.80
2022-08-16T01:20:41.695Z,7.70
2022-08-16T01:23:20.482Z,7.50
2022-08-16T01:26:00.149Z,8.10
2022-08-16T01:28:45.341Z,8.10
2022-08-16T01:31:15.129Z,10.40
2022-08-16T01:33:44.428Z,10.30
2022-08-16T01:36:12.993Z,9.10
2022-08-16T01:38:56.877Z,9.00
2022-08-16T01:41:30.605Z,9.00
2022-08-16T01:44:00.699Z,9.60
2022-08-16T01:46:39.863Z,8.70
2022-08-16T01:49:22.938Z,8.60
2022-08-16T01:52:03.001Z,9.30
2022-08-16T01:54:31.450Z,9.20
2022-08-16T01:56:59.496Z,9.90
2022-08-16T01:59:28.100Z,9.50
2022-08-16T02:01:59.847Z,10.20
2022-08-16T02:04:40.101Z,9.80
2022-08-16T02:07:18.313Z,9.20
2022-08-16T02:09:58.813Z,9.30
2022-08-16T02:12:43.621Z,10.00
2022-08-16T02:15:25.248Z,9.60
2022-08-16T02:17:52.798Z,9.20
2022-08-16T02:20:26.108Z,9.20
2022-08-16T02:22:56.355Z,9.70
2022-08-16T02:25:24.207Z,9.00
2022-08-16T02:27:51.787Z,10.20
2022-08-16T02:30:36.561Z,10.00
2022-08-16T02:33:12.546Z,9.60
2022-08-16T02:35:54.541Z,9.70
2022-08-16T02:38:27.138Z,10.40
2022-08-16T02:40:55.080Z,10.10
2022-08-16T02:43:26.499Z,9.90
2022-08-16T02:45:53.648Z,9.90
2022-08-16T02:48:29.503Z,9.00
2022-08-16T02:51:06.573Z,9.00
2022-08-16T02:53:43.923Z,8.20
2022-08-16T02:56:15.941Z,8.60
2022-08-16T02:58:45.577Z,8.90
2022-08-16T03:01:25.103Z,9.00
2022-08-16T03:04:39.980Z,9.70
2022-08-16T03:06:56.552Z,9.00
2022-08-16T03:09:24.064Z,9.00
2022-08-16T03:11:50.700Z,8.40
2022-08-16T03:14:20.835Z,9.10
2022-08-16T03:16:59.915Z,10.70
2022-08-16T03:19:48.446Z,10.60
2022-08-16T03:22:28.310Z,10.50
2022-08-16T03:25:00.971Z,9.40
2022-08-16T03:27:30.585Z,9.50
2022-08-16T03:30:00.305Z,9.50
2022-08-16T03:32:26.836Z,9.30
2022-08-16T03:34:53.493Z,8.10
2022-08-16T03:37:20.053Z,8.20
2022-08-16T03:39:47.007Z,8.60
2022-08-16T03:42:20.283Z,11.40
2022-08-16T03:44:49.569Z,8.30
2022-08-16T03:47:18.596Z,9.40
2022-08-16T03:49:51.410Z,8.60
2022-08-16T03:52:23.547Z,8.20
2022-08-16T03:54:53.264Z,7.80
2022-08-16T03:57:24.777Z,8.00
2022-08-16T03:59:59.224Z,8.40
2022-08-16T04:02:31.758Z,10.50
2022-08-16T04:04:58.677Z,10.00
2022-08-16T04:07:25.720Z,9.30
2022-08-16T04:09:52.450Z,9.50
2022-08-16T04:12:54.536Z,8.40
2022-08-16T04:15:10.667Z,9.40
2022-08-16T04:17:40.803Z,8.90
2022-08-16T04:20:29.385Z,9.70
2022-08-16T04:22:57.457Z,8.50
2022-08-16T04:25:26.046Z,10.40
2022-08-16T04:27:54.273Z,11.00
2022-08-16T04:30:32.183Z,11.60
2022-08-16T04:33:02.186Z,11.20
2022-08-16T04:35:33.971Z,9.60
2022-08-16T04:38:10.607Z,9.50
2022-08-16T04:40:50.449Z,10.20
2022-08-16T04:43:18.718Z,9.80
2022-08-16T04:45:46.310Z,9.40
2022-08-16T04:48:22.090Z,9.50
2022-08-16T04:50:59.233Z,9.80
2022-08-16T04:53:25.862Z,9.80
2022-08-16T04:55:53.247Z,8.90
2022-08-16T04:58:44.599Z,9.50
2022-08-16T05:01:08.142Z,10.60
2022-08-16T05:03:35.534Z,10.70
2022-08-16T05:06:09.476Z,11.00
2022-08-16T05:08:37.390Z,10.10
2022-08-16T05:11:08.875Z,10.60
2022-08-16T05:13:40.523Z,10.30
2022-08-16T05:16:19.764Z,11.20
2022-08-16T05:18:47.923Z,11.30
2022-08-16T05:21:14.860Z,10.90
2022-08-16T05:23:43.431Z,11.10
2022-08-16T05:26:20.239Z,10.80
2022-08-16T05:28:55.650Z,11.40
2022-08-16T05:31:29.655Z,10.40
2022-08-16T05:34:03.276Z,10.80
2022-08-16T05:36:36.306Z,11.10
2022-08-16T05:39:07.753Z,11.30
2022-08-16T05:41:45.119Z,11.00
2022-08-16T05:44:24.213Z,10.90
2022-08-16T05:46:54.904Z,11.20
2022-08-16T05:49:23.248Z,11.30
2022-08-16T05:51:50.266Z,10.80
2022-08-16T05:54:24.899Z,11.40
2022-08-16T05:56:53.307Z,11.60
2022-08-16T05:59:22.104Z,12.00
2022-08-16T06:01:50.655Z,11.60
2022-08-16T06:04:35.983Z,11.60
2022-08-16T06:07:09.097Z,11.50
2022-08-16T06:09:43.462Z,10.80
2022-08-16T06:12:26.803Z,11.40
2022-08-16T06:14:59.080Z,11.60
2022-08-16T06:17:41.078Z,10.10
2022-08-16T06:20:25.634Z,10.50
2022-08-16T06:23:11.706Z,11.70
2022-08-16T06:25:43.966Z,10.30
2022-08-16T06:28:35.779Z,11.00
2022-08-16T06:31:05.651Z,11.50
2022-08-16T06:33:40.316Z,11.00
2022-08-16T06:36:11.706Z,11.60
2022-08-16T06:38:55.630Z,10.40
2022-08-16T06:41:24.349Z,10.50
2022-08-16T06:43:55.003Z,10.70
2022-08-16T06:46:37.005Z,10.90
2022-08-16T06:49:11.290Z,10.80
2022-08-16T06:51:46.396Z,10.40
2022-08-16T06:54:16.175Z,10.80
2022-08-16T06:56:43.198Z,10.60
2022-08-16T06:59:10.496Z,10.90
2022-08-16T07:01:44.737Z,11.10
2022-08-16T07:04:31.696Z,11.50
2022-08-16T07:07:00.576Z,10.60
2022-08-16T07:09:29.890Z,10.30
2022-08-16T07:12:03.189Z,10.50
2022-08-16T07:14:30.747Z,10.90
2022-08-16T07:16:59.358Z,11.30
2022-08-16T07:20:03.597Z,10.50
2022-08-16T07:22:37.528Z,10.20
2022-08-16T07:25:10.358Z,10.40
2022-08-16T07:27:40.596Z,9.90
2022-08-16T07:30:45.139Z,10.40
2022-08-16T07:33:00.497Z,10.20
2022-08-16T07:35:27.331Z,10.30
2022-08-16T07:37:53.967Z,9.70
2022-08-16T07:40:31.925Z,9.90
2022-08-16T07:43:07.249Z,10.50
2022-08-16T07:45:34.796Z,10.20
2022-08-16T07:48:11.244Z,10.30
2022-08-16T07:50:57.033Z,9.90
2022-08-16T07:53:29.162Z,9.20
2022-08-16T07:55:56.889Z,9.90
2022-08-16T07:58:35.048Z,9.60
2022-08-16T08:01:10.930Z,9.50
2022-08-16T08:03:48.198Z,9.40
2022-08-16T08:06:24.956Z,9.80
2022-08-16T08:08:57.426Z,10.20
2022-08-16T08:11:28.699Z,9.80
2022-08-16T08:14:03.241Z,8.90
2022-08-16T08:16:31.884Z,8.50
2022-08-16T08:19:02.902Z,8.10
2022-08-16T08:21:59.863Z,8.40
2022-08-16T08:24:22.901Z,8.90
2022-08-16T08:27:03.340Z,8.10
2022-08-16T08:29:37.413Z,8.80
2022-08-16T08:32:58.227Z,8.90
2022-08-16T08:35:03.144Z,8.70
2022-08-16T08:37:54.818Z,9.40
2022-08-16T08:40:19.862Z,8.50
2022-08-16T08:42:52.169Z,8.50
2022-08-16T08:45:47.243Z,8.80
2022-08-16T08:48:33.726Z,8.60
2022-08-16T08:51:00.692Z,8.00
2022-08-16T08:53:30.562Z,8.20
2022-08-16T08:55:59.087Z,8.30
2022-08-16T08:58:34.017Z,8.50
2022-08-16T09:01:03.637Z,8.80
2022-08-16T09:03:32.495Z,8.00
2022-08-16T09:06:01.116Z,8.40
2022-08-16T09:08:28.458Z,7.50
2022-08-16T09:10:58.833Z,7.60
2022-08-16T09:13:32.642Z,7.30
2022-08-16T09:16:01.276Z,7.60
2022-08-16T09:18:35.977Z,7.40
2022-08-16T09:21:07.163Z,7.70
2022-08-16T09:23:37.564Z,7.10
2022-08-16T09:26:43.926Z,7.40
2022-08-16T09:29:15.930Z,7.70
2022-08-16T09:31:43.821Z,7.20
2022-08-16T09:34:12.985Z,6.70
2022-08-16T09:36:46.356Z,7.70
2022-08-16T09:39:16.165Z,7.90
2022-08-16T09:41:53.968Z,7.60
2022-08-16T09:45:12.620Z,7.90
2022-08-16T09:47:13.018Z,8.60
2022-08-16T09:49:41.163Z,7.70
2022-08-16T09:52:09.833Z,8.00
2022-08-16T09:54:37.817Z,8.30
2022-08-16T09:57:05.155Z,8.60
2022-08-16T09:59:38.486Z,8.30
2022-08-16T10:02:23.015Z,8.50
2022-08-16T10:04:54.518Z,8.60
2022-08-16T10:07:21.550Z,8.70
2022-08-16T10:09:54.969Z,8.90
2022-08-16T10:12:45.307Z,8.80
2022-08-16T10:15:21.382Z,8.20
2022-08-16T10:18:00.311Z,8.50
2022-08-16T10:20:34.500Z,8.80
2022-08-16T10:23:08.005Z,8.80
2022-08-16T10:27:18.288Z,8.30
2022-08-16T10:28:32.404Z,8.60
2022-08-16T10:31:11.985Z,9.10
2022-08-16T10:33:41.491Z,9.30
2022-08-16T10:36:09.756Z,9.20
2022-08-16T10:38:42.013Z,8.90
2022-08-16T10:41:11.357Z,8.90
2022-08-16T10:43:43.297Z,9.30
2022-08-16T10:46:39.303Z,9.10
2022-08-16T10:49:00.995Z,9.10
2022-08-16T10:51:34.282Z,9.00
2022-08-16T10:54:28.433Z,8.50
2022-08-16T10:57:04.476Z,9.40
2022-08-16T10:59:44.619Z,9.60
2022-08-16T11:02:58.530Z,8.90
2022-08-16T11:05:09.462Z,9.00
2022-08-16T11:07:52.483Z,8.90
2022-08-16T11:19:05.955Z,8.90
2022-08-16T11:22:22.855Z,8.20
2022-08-16T11:24:41.617Z,8.70
2022-08-16T11:27:23.638Z,8.80
2022-08-16T11:29:55.091Z,8.00
2022-08-16T11:32:32.462Z,8.20
2022-08-16T11:35:13.406Z,8.10
2022-08-16T11:38:06.104Z,7.90
2022-08-16T11:40:44.379Z,7.80
2022-08-16T11:43:13.119Z,7.90
2022-08-16T11:45:44.301Z,7.80
2022-08-16T11:48:21.827Z,8.30
2022-08-16T11:50:48.605Z,7.20
2022-08-16T11:53:17.063Z,7.50
2022-08-16T11:55:44.597Z,7.30
2022-08-16T11:58:12.305Z,7.10
2022-08-16T12:00:51.207Z,7.80
2022-08-16T12:03:34.905Z,7.70
2022-08-16T12:06:11.197Z,7.60
2022-08-16T12:08:57.539Z,8.10
2022-08-16T12:11:27.886Z,7.60
2022-08-16T12:14:00.813Z,7.40
2022-08-16T12:16:31.027Z,7.50
2022-08-16T12:19:06.425Z,7.70
2022-08-16T12:21:58.312Z,7.10
2022-08-16T12:24:24.009Z,7.90
2022-08-16T12:26:51.818Z,7.30
2022-08-16T12:29:19.533Z,8.00
2022-08-16T12:32:00.580Z,7.90
2022-08-16T12:34:33.057Z,7.30
2022-08-16T12:37:04.817Z,7.40
2022-08-16T12:39:33.389Z,7.00
2022-08-16T12:42:00.087Z,7.00
2022-08-16T12:44:31.196Z,7.10
2022-08-16T12:47:17.620Z,7.60
2022-08-16T12:49:44.168Z,6.50
2022-08-16T12:52:33.020Z,7.00
2022-08-16T12:54:59.597Z,7.00
2022-08-16T12:57:36.184Z,6.90
2022-08-16T13:00:26.387Z,8.00
2022-08-16T13:02:54.071Z,8.90
2022-08-16T13:05:20.772Z,9.00
2022-08-16T13:07:51.752Z,7.70
2022-08-16T13:10:37.916Z,8.50
2022-08-16T13:13:08.873Z,7.40
2022-08-16T13:15:51.758Z,7.70
2022-08-16T13:18:34.075Z,7.60
2022-08-16T13:21:06.440Z,7.70
2022-08-16T13:23:34.075Z,7.80
2022-08-16T13:26:03.547Z,7.60
2022-08-16T13:28:30.284Z,7.70
2022-08-16T13:30:58.594Z,7.80
2022-08-16T13:33:30.632Z,7.60
2022-08-16T13:36:01.087Z,7.40
2022-08-16T13:38:31.474Z,7.60
2022-08-16T13:41:05.556Z,7.50
2022-08-16T13:43:35.820Z,7.10
2022-08-16T13:46:02.897Z,7.20
2022-08-16T13:48:42.699Z,7.80
2022-08-16T13:51:18.052Z,7.60
2022-08-16T13:53:59.792Z,7.30
2022-08-16T13:56:37.906Z,7.20
2022-08-16T13:59:14.376Z,7.50
2022-08-16T14:01:55.641Z,6.90
2022-08-16T14:04:33.981Z,7.30
2022-08-16T14:07:06.527Z,7.50
2022-08-16T14:09:36.496Z,6.90
2022-08-16T14:12:09.515Z,7.40
2022-08-16T14:14:36.537Z,7.00
2022-08-16T14:17:05.027Z,7.30
2022-08-16T14:19:36.396Z,7.30
2022-08-16T14:22:14.909Z,6.90
2022-08-16T14:24:46.925Z,6.50
2022-08-16T14:27:23.278Z,7.10
2022-08-16T14:29:52.374Z,7.30
2022-08-16T14:32:32.705Z,7.20
2022-08-16T14:35:11.407Z,7.20
2022-08-16T14:37:43.135Z,7.00
2022-08-16T14:40:13.669Z,6.70
2022-08-16T14:42:40.966Z,7.10
2022-08-16T14:45:15.926Z,6.80
2022-08-16T14:47:43.696Z,7.40
2022-08-16T14:50:15.471Z,6.40
2022-08-16T14:52:58.066Z,7.40
2022-08-16T14:55:27.641Z,6.60
2022-08-16T14:57:55.184Z,6.70
2022-08-16T15:00:32.772Z,7.30
2022-08-16T15:03:04.651Z,6.90
2022-08-16T15:08:04.052Z,7.30
2022-08-16T15:10:32.207Z,7.10
2022-08-16T15:13:01.484Z,7.00
2022-08-16T15:15:30.582Z,7.90
2022-08-16T15:17:58.666Z,7.60
2022-08-16T15:20:33.105Z,7.50
2022-08-16T15:23:04.800Z,7.30
2022-08-16T15:25:41.528Z,7.40
2022-08-16T15:28:31.069Z,7.30
2022-08-16T15:31:03.853Z,6.90
2022-08-16T15:33:38.942Z,7.40
2022-08-16T15:36:09.545Z,7.50
2022-08-16T15:38:56.760Z,7.10
2022-08-16T15:41:42.537Z,7.00
2022-08-16T15:44:23.618Z,6.80
2022-08-16T15:46:57.207Z,6.70
2022-08-16T15:49:37.866Z,6.80
2022-08-16T15:52:24.937Z,7.10
2022-08-16T15:55:00.308Z,7.10
2022-08-16T15:57:30.327Z,6.60
2022-08-16T16:00:14.623Z,6.60
2022-08-16T16:02:42.613Z,6.30
2022-08-16T16:05:10.461Z,6.90
2022-08-16T16:07:39.412Z,6.60
2022-08-16T16:10:13.069Z,6.00
2022-08-16T16:12:50.867Z,6.50
2022-08-16T16:15:29.559Z,6.50
2022-08-16T16:17:57.208Z,5.90
2022-08-16T16:20:28.590Z,5.90
2022-08-16T16:23:01.426Z,5.80
2022-08-16T16:25:30.138Z,6.30
2022-08-16T16:27:59.602Z,5.80
2022-08-16T16:30:38.276Z,6.40
2022-08-16T16:33:21.256Z,6.30
2022-08-16T16:35:56.729Z,6.40
2022-08-16T16:38:31.180Z,7.70
2022-08-16T16:41:09.827Z,7.10
2022-08-16T16:43:40.591Z,7.30
2022-08-16T16:46:40.691Z,8.00
2022-08-16T16:48:56.407Z,7.20
2022-08-16T16:51:24.476Z,6.80
2022-08-16T16:53:56.603Z,6.40
2022-08-16T16:56:31.250Z,6.50
2022-08-16T16:59:06.172Z,6.80
2022-08-16T17:01:57.113Z,7.50
2022-08-16T17:04:32.499Z,7.60
2022-08-16T17:07:01.779Z,8.20
2022-08-16T17:09:29.546Z,7.40
2022-08-16T17:11:57.933Z,6.30
2022-08-16T17:14:32.321Z,6.50
2022-08-16T17:17:09.261Z,6.00
2022-08-16T17:19:40.889Z,5.70
2022-08-16T17:22:16.953Z,5.70
2022-08-16T17:24:52.291Z,5.70
2022-08-16T17:27:33.661Z,5.50
2022-08-16T17:30:16.430Z,6.20
2022-08-16T17:32:55.044Z,6.10
2022-08-16T17:35:34.040Z,6.40
2022-08-16T17:38:05.935Z,6.30
2022-08-16T17:40:47.199Z,6.60
2022-08-16T17:43:28.190Z,6.40
2022-08-16T17:45:55.819Z,7.00
2022-08-16T17:48:23.077Z,9.20
2022-08-16T17:50:54.457Z,9.70
2022-08-16T17:53:22.874Z,11.20
2022-08-16T17:55:50.629Z,12.20
2022-08-16T17:58:22.902Z,11.60
2022-08-16T18:00:57.543Z,10.60
2022-08-16T18:04:02.578Z,9.20
2022-08-16T18:06:24.574Z,9.30
2022-08-16T18:09:00.229Z,8.60
2022-08-16T18:11:29.951Z,8.60
2022-08-16T18:13:59.706Z,7.60
2022-08-16T18:16:26.878Z,7.50
2022-08-16T18:18:53.468Z,7.40
2022-08-16T18:21:39.336Z,7.50
2022-08-16T18:24:07.705Z,7.20
2022-08-16T18:26:34.517Z,7.30
2022-08-16T18:29:01.295Z,7.90
2022-08-16T18:31:27.846Z,7.70
2022-08-16T18:33:55.541Z,7.80
2022-08-16T18:36:24.142Z,8.10
2022-08-16T18:38:52.499Z,8.60
2022-08-16T18:41:21.919Z,8.60
2022-08-16T18:44:22.813Z,7.30
2022-08-16T18:46:35.508Z,7.90
2022-08-16T18:49:02.068Z,7.40
2022-08-16T18:51:28.616Z,7.50
2022-08-16T18:53:55.152Z,7.70
2022-08-16T18:56:21.672Z,8.10
2022-08-16T18:58:48.326Z,8.50
2022-08-16T19:01:15.066Z,7.80
2022-08-16T19:03:42.025Z,8.70
2022-08-16T19:06:13.986Z,8.10
2022-08-16T19:08:43.967Z,8.20
2022-08-16T19:11:15.232Z,7.40
2022-08-16T19:13:45.307Z,7.80
2022-08-16T19:16:14.239Z,8.70
2022-08-16T19:18:41.932Z,8.30
2022-08-16T19:21:11.514Z,7.70
2022-08-16T19:23:43.418Z,8.60
2022-08-16T19:26:23.406Z,8.20
2022-08-16T19:28:59.566Z,9.40
2022-08-16T19:31:33.118Z,8.90
2022-08-16T19:34:01.070Z,8.80
2022-08-16T19:36:35.946Z,8.40
2022-08-16T19:39:09.645Z,8.50
2022-08-16T19:41:46.385Z,8.20
2022-08-16T19:44:19.920Z,8.00
2022-08-16T19:46:48.597Z,8.40
2022-08-16T19:49:16.461Z,7.80
2022-08-16T19:51:48.085Z,8.40
2022-08-16T19:54:14.883Z,7.20
2022-08-16T19:56:41.573Z,7.60
2022-08-16T19:59:40.407Z,7.20
2022-08-16T20:01:54.905Z,7.50
2022-08-16T20:04:23.456Z,7.80
2022-08-16T20:06:52.260Z,7.60
2022-08-16T20:09:19.728Z,7.60
2022-08-16T20:11:48.575Z,7.70
2022-08-16T20:14:24.181Z,7.20
2022-08-16T20:16:56.083Z,7.40
2022-08-16T20:19:23.137Z,7.50
2022-08-16T20:21:49.843Z,7.90
2022-08-16T20:24:33.531Z,8.40
2022-08-16T20:27:02.780Z,7.20
2022-08-16T20:29:29.446Z,7.10
2022-08-16T20:31:56.379Z,7.20
2022-08-16T20:34:23.180Z,7.00
2022-08-16T20:36:49.677Z,7.10
2022-08-16T20:39:20.013Z,8.40
2022-08-16T20:41:46.557Z,9.00
2022-08-16T20:44:13.192Z,7.30
2022-08-16T20:46:40.051Z,8.70
2022-08-16T20:49:09.223Z,8.10
2022-08-16T20:51:50.825Z,8.70
2022-08-16T20:54:20.109Z,8.20
2022-08-16T20:56:48.935Z,7.50
2022-08-16T20:59:15.859Z,8.60
2022-08-16T21:01:46.589Z,7.70
2022-08-16T21:04:20.014Z,7.80
2022-08-16T21:06:54.353Z,7.00
2022-08-16T21:09:33.601Z,7.30
2022-08-16T21:12:10.511Z,7.40
2022-08-16T21:14:42.884Z,8.20
2022-08-16T21:17:11.723Z,8.90
2022-08-16T21:19:38.527Z,8.30
2022-08-16T21:22:20.423Z,7.60
2022-08-16T21:24:48.693Z,7.40
2022-08-16T21:27:20.533Z,8.30
2022-08-16T21:29:48.949Z,8.90
2022-08-16T21:32:35.211Z,9.80
2022-08-16T21:35:09.716Z,10.40
2022-08-16T21:37:36.294Z,7.80
2022-08-16T21:40:04.699Z,7.40
2022-08-16T21:42:36.151Z,7.70
2022-08-16T21:45:03.487Z,7.80
2022-08-16T21:47:29.985Z,7.50
2022-08-16T21:49:56.575Z,7.00
2022-08-16T21:52:26.864Z,7.00
2022-08-16T21:54:57.036Z,10.20
2022-08-16T21:57:24.095Z,10.10
2022-08-16T21:59:53.249Z,9.80
2022-08-16T22:02:25.557Z,10.60
2022-08-16T22:04:52.285Z,10.30
2022-08-16T22:07:19.034Z,9.90
2022-08-16T22:09:48.634Z,8.30
2022-08-16T22:12:24.134Z,9.80
2022-08-16T22:14:50.841Z,9.10
2022-08-16T22:17:17.682Z,8.10
2022-08-16T22:19:44.411Z,7.40
2022-08-16T22:22:11.732Z,7.00
2022-08-16T22:24:38.522Z,8.00
2022-08-16T22:27:05.981Z,10.60
2022-08-16T22:29:32.521Z,10.60
2022-08-16T22:32:00.939Z,9.00
2022-08-16T22:34:27.466Z,7.70
2022-08-16T22:36:54.000Z,7.90
2022-08-16T22:39:20.816Z,8.50
2022-08-16T22:41:49.749Z,7.70
2022-08-16T22:44:17.840Z,8.20
2022-08-16T22:46:45.181Z,8.50
2022-08-16T22:49:12.355Z,10.80
2022-08-16T22:51:40.292Z,8.90
2022-08-16T22:54:42.561Z,9.50
2022-08-16T22:56:53.797Z,8.00
2022-08-16T22:59:20.480Z,8.40
2022-08-16T23:01:47.105Z,8.90
2022-08-16T23:04:13.658Z,9.80
2022-08-16T23:06:40.218Z,10.10
2022-08-16T23:09:06.689Z,8.80
2022-08-16T23:11:33.574Z,8.50
2022-08-16T23:14:00.358Z,8.90
2022-08-16T23:16:33.299Z,9.00
2022-08-16T23:19:10.773Z,9.30
2022-08-16T23:21:40.827Z,8.70
2022-08-16T23:24:08.830Z,10.30
2022-08-16T23:26:47.995Z,11.80
2022-08-16T23:29:24.129Z,10.80
2022-08-16T23:31:58.998Z,9.30
2022-08-16T23:34:28.969Z,9.20
2022-08-16T23:36:56.316Z,8.70
2022-08-16T23:39:23.139Z,9.40
2022-08-16T23:41:49.667Z,9.20
2022-08-16T23:44:42.179Z,8.80
2022-08-16T23:47:05.981Z,8.50
2022-08-16T23:49:57.665Z,9.60
2022-08-16T23:52:53.765Z,10.30
2022-08-16T23:55:07.069Z,9.20
2022-08-16T23:57:33.601Z,8.60
